Methuen, MA

9:05 PM EDT on August 22, 2014 (GMT -0400)
lawrence | Change Station
CLOSE
Current Station
Personal Weather Station
Location: Lawrence, MA
Elevation: 98 ft
Nearby Weather Stations

Elev 98 ft 42.72 °N, 71.15 °W | Updated 3 minutes ago

Overcast
Overcast
63.6 °F
Feels Like 63.6 °F
N
0.0
Wind Variable Wind from ENE
Gusts 4.0 mph

Today
High -- | Low -- °F
--% Chance of Precip.
Yesterday
High -- | Low -- °F
Precip. -- in
5:58 AM 7:35 PM
Waning Crescent, 6% visible
Pressure 30.14 in
Visibility 10.0 miles
Clouds Overcast 1400 ft
Dew Point 61 °F
Humidity 91%
Rainfall 0.22 in
Snow Depth Not available.
UV 0 out of 12
Pollen 5.40 out of 12
PM2.5 Good
Flu Activity Not available.
METAR KLWM 230054Z 04005KT 10SM OVC014 17/16 A3014 RMK AO2 SLP205 T01720156

More Conditions Fewer Conditions

Pressure 30.14 in
Visibility 10.0 miles
Clouds Overcast 1400 ft
Dew Point 61 °F
Humidity 91%
Rainfall 0.22 in
Snow Depth Not available.
UV 0 out of 12
Pollen 5.40 out of 12
PM2.5 Good
Flu Activity Not available.
METAR KLWM 230054Z 04005KT 10SM OVC014 17/16 A3014 RMK AO2 SLP205 T01720156

More Conditions Fewer Conditions

10-Day Weather Forecast

Almanac

Astronomy

Aug. 22, 2014 Rise Set
Actual Time 5:58 AM EDT 7:35 PM EDT
Civil Twilight 5:28 AM EDT 8:05 PM EDT
Nautical Twilight 4:52 AM EDT 8:41 PM EDT
Astronomical Twilight 4:13 AM EDT 9:20 PM EDT
Moon 3:16 AM EDT (8/22) 5:43 PM EDT (8/22)
Length of Visible Light 14h 36m
Length of Day
13h 37m
Tomorrow will be 2m 41s shorter.
Waning Crescent, 6% of the Moon is Illuminated
Today
Waning Crescent
Aug 25
New
Sep 2
First Quarter
Sep 8
Full
Sep 15
Last Quarter

Today's Extremes

State Highs State Lows

Community

WunderPhotos

Upload Photos

1,746,336 photos uploaded!

WunderBlogs® & News

Nearby

Air Quality

  Air Quality AQ Index Pollutant
Yesterday Good
PM2.5
Yesterday Good
OZONE
Current Good
PM2.5
Friday Good
PM2.5
Friday Good
OZONE
Saturday Good
PM2.5
Saturday Good
OZONE

Snow Depth

Station Depth Elevation
No new snow has been reported.

Earthquake Activity

City Distance Mag. Time & Date
No recent earthquake activity has been reported nearby.
Minimum magnitude displayed is 2.5.

Coastal Water Temperatures

Place Temperature
Boston, MA 66.0 °F
Fall River, MA 73.0 °F

Nearby Weather Stations